createdAt,value
2018-11-22T12:17:08.108Z,18.47
2018-11-22T12:19:36.676Z,17.60
2018-11-22T12:22:05.163Z,18.27
2018-11-22T12:24:33.463Z,16.97
2018-11-22T12:27:02.311Z,16.97
2018-11-22T12:29:30.623Z,16.43
2018-11-22T12:32:05.708Z,15.57
2018-11-22T12:34:40.260Z,16.03
2018-11-22T12:37:15.620Z,16.23
2018-11-22T12:39:43.999Z,16.33
2018-11-22T12:42:12.311Z,16.53
2018-11-22T12:44:40.704Z,16.70
2018-11-22T12:47:09.058Z,15.50
2018-11-22T12:49:37.391Z,15.50
2018-11-22T12:52:06.733Z,15.30
2018-11-22T12:54:37.017Z,15.47
2018-11-22T12:57:05.447Z,14.43
2018-11-22T12:59:33.742Z,15.00
2018-11-22T13:02:02.099Z,15.60
2018-11-22T13:04:30.967Z,15.40
2018-11-22T13:06:59.283Z,15.10
2018-11-22T13:09:27.776Z,14.07
2018-11-22T13:11:56.093Z,13.93
2018-11-22T13:14:24.448Z,14.27
2018-11-22T13:16:53.084Z,14.27
2018-11-22T13:19:21.903Z,13.80
2018-11-22T13:21:50.258Z,13.87
2018-11-22T13:24:18.543Z,14.00
2018-11-22T13:26:46.864Z,14.40
2018-11-22T13:29:15.181Z,13.47
2018-11-22T13:31:44.023Z,14.57
2018-11-22T13:34:12.946Z,13.77
2018-11-22T13:36:41.363Z,14.47
2018-11-22T13:39:11.374Z,14.60
2018-11-22T13:41:39.678Z,14.20
2018-11-22T13:44:08.102Z,14.33
2018-11-22T13:46:36.401Z,14.47
2018-11-22T13:49:04.915Z,15.60
2018-11-22T13:51:33.365Z,15.43
2018-11-22T13:54:02.286Z,16.30
2018-11-22T13:56:30.607Z,15.73
2018-11-22T13:58:59.943Z,15.67
2018-11-22T14:01:27.973Z,16.23
2018-11-22T14:03:56.750Z,16.13
2018-11-22T14:06:25.459Z,17.00
2018-11-22T14:08:53.751Z,16.53
2018-11-22T14:11:22.046Z,16.47
2018-11-22T14:13:50.380Z,17.20
2018-11-22T14:16:18.692Z,17.40
2018-11-22T14:18:47.471Z,17.63
2018-11-22T14:21:15.803Z,17.43
2018-11-22T14:23:44.119Z,18.03
2018-11-22T14:26:12.691Z,18.40
2018-11-22T14:28:41.007Z,18.87
2018-11-22T14:31:09.332Z,17.13
2018-11-22T14:33:38.374Z,18.73
2018-11-22T14:36:06.655Z,18.07
2018-11-22T14:38:34.954Z,18.20
2018-11-22T14:41:03.226Z,18.43
2018-11-22T14:43:31.568Z,18.97
2018-11-22T14:46:00.274Z,18.10
2018-11-22T14:48:28.587Z,18.50
2018-11-22T14:51:02.122Z,18.50
2018-11-22T14:53:30.847Z,18.00
2018-11-22T14:55:59.158Z,19.03
2018-11-22T14:58:27.471Z,18.50
2018-11-22T15:00:55.779Z,17.93
2018-11-22T15:03:24.514Z,18.43
2018-11-22T15:05:52.899Z,18.13
2018-11-22T15:08:21.150Z,18.60
2018-11-22T15:10:50.073Z,18.87
2018-11-22T15:13:18.371Z,18.67
2018-11-22T15:15:46.666Z,17.97
2018-11-22T15:18:15.732Z,16.73
2018-11-22T15:20:44.035Z,17.40
2018-11-22T15:23:12.359Z,17.10
2018-11-22T15:25:40.675Z,18.27
2018-11-22T15:28:08.973Z,18.50
2018-11-22T15:30:37.443Z,17.93
2018-11-22T15:33:06.162Z,18.00
2018-11-22T15:35:35.039Z,20.47
2018-11-22T15:38:03.715Z,18.07
2018-11-22T15:40:32.742Z,18.53
2018-11-22T15:43:02.102Z,17.77
2018-11-22T15:45:35.155Z,17.47
2018-11-22T15:47:59.343Z,17.80
2018-11-22T15:50:28.485Z,18.37
2018-11-22T15:52:57.146Z,18.10
2018-11-22T15:55:26.029Z,18.70
2018-11-22T15:57:56.522Z,18.33
2018-11-22T16:00:26.235Z,18.17
2018-11-22T16:02:55.063Z,18.87
2018-11-22T16:05:24.674Z,20.60
2018-11-22T16:07:52.983Z,18.60
2018-11-22T16:10:26.924Z,19.27
2018-11-22T16:12:52.770Z,20.10
2018-11-22T16:15:23.962Z,19.40
2018-11-22T16:17:52.955Z,18.27
2018-11-22T16:20:21.272Z,17.93
2018-11-22T16:22:49.617Z,18.73
2018-11-22T16:25:17.957Z,18.57
2018-11-22T16:27:46.242Z,19.00
2018-11-22T16:30:17.644Z,19.20
2018-11-22T16:32:46.565Z,19.20
2018-11-22T16:35:16.337Z,19.47
2018-11-22T16:37:45.415Z,19.13
2018-11-22T16:40:15.504Z,18.70
2018-11-22T16:42:45.932Z,19.40
2018-11-22T16:45:27.758Z,18.97
2018-11-22T16:47:56.600Z,18.90
2018-11-22T16:50:26.090Z,20.27
2018-11-22T16:52:55.040Z,20.43
2018-11-22T16:55:23.954Z,19.47
2018-11-22T17:00:38.326Z,24.17
2018-11-22T17:03:09.074Z,21.87
2018-11-22T17:05:37.706Z,24.77
2018-11-22T17:08:06.735Z,21.53
2018-11-22T17:10:35.503Z,19.27
2018-11-22T17:13:04.491Z,20.50
2018-11-22T17:15:36.089Z,21.30
2018-11-22T17:18:05.696Z,20.33
2018-11-22T17:20:34.302Z,20.40
2018-11-22T17:23:03.677Z,22.00
2018-11-22T17:25:33.570Z,20.77
2018-11-22T17:28:03.155Z,19.07
2018-11-22T17:30:34.833Z,20.07
2018-11-22T17:33:04.652Z,21.43
2018-11-22T17:35:33.662Z,21.13
2018-11-22T17:38:03.659Z,20.30
2018-11-22T17:40:35.355Z,19.83
2018-11-22T17:43:03.658Z,22.47
2018-11-22T17:45:35.485Z,21.93
2018-11-22T17:48:04.079Z,24.13
2018-11-22T17:50:34.037Z,21.23
2018-11-22T17:53:02.912Z,19.40
2018-11-22T17:55:31.903Z,19.63
2018-11-22T17:58:00.198Z,20.03
2018-11-22T18:00:34.695Z,19.77
2018-11-22T18:03:04.649Z,20.40
2018-11-22T18:05:33.587Z,20.27
2018-11-22T18:08:02.030Z,20.93
2018-11-22T18:10:32.687Z,19.73
2018-11-22T18:13:01.067Z,20.37
2018-11-22T18:15:31.248Z,20.77
2018-11-22T18:17:59.915Z,22.90
2018-11-22T18:20:29.673Z,21.43
2018-11-22T18:22:59.270Z,25.63
2018-11-22T18:25:29.326Z,21.87
2018-11-22T18:27:57.658Z,20.97
2018-11-22T18:30:27.283Z,21.57
2018-11-22T18:32:57.849Z,20.93
2018-11-22T18:35:26.551Z,21.17
2018-11-22T18:37:56.620Z,21.57
2018-11-22T18:40:26.336Z,20.70
2018-11-22T18:42:55.683Z,20.77
2018-11-22T18:45:29.422Z,23.07
2018-11-22T18:47:57.822Z,20.67
2018-11-22T18:50:27.334Z,22.27
2018-11-22T18:52:56.290Z,22.77
2018-11-22T18:55:25.050Z,22.13
2018-11-22T18:57:53.330Z,22.07
2018-11-22T19:00:24.915Z,21.33
2018-11-22T19:02:55.007Z,21.03
2018-11-22T19:05:23.675Z,22.70
2018-11-22T19:07:52.730Z,21.53
2018-11-22T19:10:23.395Z,21.13
2018-11-22T19:12:53.283Z,20.90
2018-11-22T19:15:24.674Z,21.17
2018-11-22T19:17:53.630Z,21.33
2018-11-22T19:20:25.039Z,22.60
2018-11-22T19:22:54.376Z,25.77
2018-11-22T19:25:23.985Z,29.93
2018-11-22T19:27:52.507Z,23.53
2018-11-22T19:30:25.347Z,22.33
2018-11-22T19:32:55.211Z,22.40
2018-11-22T19:35:25.346Z,21.90
2018-11-22T19:37:54.391Z,23.20
2018-11-22T19:40:23.958Z,21.93
2018-11-22T19:42:53.939Z,22.27
2018-11-22T19:45:23.557Z,22.53
2018-11-22T19:47:52.305Z,22.00
2018-11-22T19:50:22.752Z,21.97
2018-11-22T19:52:51.986Z,21.37
2018-11-22T19:55:21.954Z,21.17
2018-11-22T19:57:51.993Z,21.93
2018-11-22T20:00:20.814Z,21.60
2018-11-22T20:02:50.104Z,22.53
2018-11-22T20:05:19.751Z,22.00
2018-11-22T20:07:49.748Z,21.83
2018-11-22T20:10:26.158Z,21.83
2018-11-22T20:12:54.511Z,22.90
2018-11-22T20:15:23.300Z,22.40
2018-11-22T20:17:52.675Z,23.83
2018-11-22T20:20:21.638Z,22.47
2018-11-22T20:22:50.187Z,22.93
2018-11-22T20:25:18.480Z,24.30
2018-11-22T20:27:46.959Z,24.87
2018-11-22T20:30:21.442Z,23.43
2018-11-22T20:32:50.177Z,24.03
2018-11-22T20:35:20.031Z,23.07
2018-11-22T20:37:49.326Z,23.30
2018-11-22T20:40:18.811Z,22.73
2018-11-22T20:42:47.171Z,23.07
2018-11-22T20:45:16.911Z,22.57
2018-11-22T20:47:46.111Z,22.97
2018-11-22T20:50:20.084Z,22.23
2018-11-22T20:52:48.697Z,22.23
2018-11-22T20:55:21.953Z,23.03
2018-11-22T20:57:52.350Z,21.90
2018-11-22T21:00:22.664Z,22.70
2018-11-22T21:02:51.043Z,22.90
2018-11-22T21:05:20.285Z,23.97
2018-11-22T21:07:48.625Z,23.37
2018-11-22T21:10:21.158Z,22.17
2018-11-22T21:12:49.602Z,23.10
2018-11-22T21:17:59.507Z,22.67
2018-11-22T21:20:29.630Z,22.37
2018-11-22T21:22:58.048Z,23.63
2018-11-22T21:25:33.146Z,22.83
2018-11-22T21:28:01.672Z,22.70
2018-11-22T21:30:31.206Z,22.20
2018-11-22T21:33:00.536Z,22.60
2018-11-22T21:35:29.834Z,23.30
2018-11-22T21:37:59.209Z,23.03
2018-11-22T21:40:28.503Z,23.10
2018-11-22T21:42:57.274Z,22.03
2018-11-22T21:45:26.350Z,21.97
2018-11-22T21:47:55.483Z,23.03
2018-11-22T21:50:25.822Z,22.87
2018-11-22T21:52:54.846Z,23.60
2018-11-22T21:55:24.573Z,24.47
2018-11-22T21:57:54.543Z,22.73
2018-11-22T22:00:26.562Z,24.17
2018-11-22T22:02:57.646Z,23.23
2018-11-22T22:05:26.925Z,23.80
2018-11-22T22:07:55.531Z,24.67
2018-11-22T22:10:24.234Z,23.93
2018-11-22T22:13:02.423Z,22.37
2018-11-22T22:15:32.708Z,23.70
2018-11-22T22:18:01.502Z,23.13
2018-11-22T22:20:33.779Z,23.47
2018-11-22T22:23:02.260Z,24.63
2018-11-22T22:25:30.619Z,22.50
2018-11-22T22:27:59.497Z,23.37
2018-11-22T22:30:29.331Z,24.40
2018-11-22T22:32:59.455Z,24.37
2018-11-22T22:35:28.223Z,24.57
2018-11-22T22:37:56.828Z,25.03
2018-11-22T22:40:26.253Z,24.10
2018-11-22T22:42:55.517Z,23.77
2018-11-22T22:45:24.916Z,23.93
2018-11-22T22:50:21.161Z,24.43
2018-11-22T22:52:51.167Z,23.20
2018-11-22T22:55:19.491Z,22.80
2018-11-22T22:57:47.812Z,22.60
2018-11-22T23:00:22.579Z,23.80
2018-11-22T23:02:53.149Z,23.47
2018-11-22T23:05:22.351Z,22.70
2018-11-22T23:07:50.836Z,23.00
2018-11-22T23:10:20.215Z,24.10
2018-11-22T23:12:48.549Z,22.63
2018-11-22T23:15:17.649Z,22.70
2018-11-22T23:17:46.623Z,23.07
2018-11-22T23:20:17.261Z,22.77
2018-11-22T23:22:46.092Z,23.03
2018-11-22T23:25:15.038Z,22.97
2018-11-22T23:27:43.373Z,23.00
2018-11-22T23:30:17.243Z,22.27
2018-11-22T23:32:47.145Z,22.13
2018-11-22T23:35:16.310Z,23.30
2018-11-22T23:37:44.711Z,22.27
2018-11-22T23:40:15.267Z,22.97
2018-11-22T23:42:44.023Z,22.43
2018-11-22T23:45:13.442Z,23.27
2018-11-22T23:47:42.447Z,24.13
2018-11-22T23:50:13.241Z,22.93
2018-11-22T23:52:42.683Z,22.67
2018-11-22T23:55:10.946Z,23.10
2018-11-22T23:57:39.683Z,23.57
